createdAt,value
2018-12-25T00:00:24.539Z,1.57
2018-12-25T00:02:54.344Z,2.17
2018-12-25T00:05:24.351Z,1.47
2018-12-25T00:07:54.201Z,1.70
2018-12-25T00:10:23.964Z,2.40
2018-12-25T00:12:53.692Z,1.60
2018-12-25T00:15:23.495Z,1.37
2018-12-25T00:17:53.265Z,1.63
2018-12-25T00:20:23.009Z,1.60
2018-12-25T00:22:53.208Z,2.63
2018-12-25T00:25:23.061Z,1.77
2018-12-25T00:27:52.771Z,1.63
2018-12-25T00:30:22.469Z,1.10
2018-12-25T00:32:52.301Z,1.73
2018-12-25T00:35:22.037Z,1.80
2018-12-25T00:37:51.865Z,1.93
2018-12-25T00:40:21.557Z,1.30
2018-12-25T00:42:51.400Z,1.60
2018-12-25T00:45:21.096Z,1.20
2018-12-25T00:47:50.897Z,1.80
2018-12-25T00:50:20.728Z,1.10
2018-12-25T00:52:50.554Z,1.10
2018-12-25T00:55:20.300Z,1.90
2018-12-25T00:57:50.133Z,1.87
2018-12-25T01:00:19.983Z,2.57
2018-12-25T01:02:49.579Z,1.20
2018-12-25T01:05:22.401Z,1.10
2018-12-25T01:07:52.345Z,2.80
2018-12-25T01:10:22.014Z,1.90
2018-12-25T01:12:51.641Z,1.30
2018-12-25T01:15:21.473Z,1.40
2018-12-25T01:17:51.160Z,1.30
2018-12-25T01:20:20.937Z,1.33
2018-12-25T01:22:50.671Z,1.37
2018-12-25T01:25:20.307Z,1.97
2018-12-25T01:27:49.913Z,1.00
2018-12-25T01:30:19.525Z,1.57
2018-12-25T01:32:49.229Z,1.30
2018-12-25T01:35:18.913Z,1.27
2018-12-25T01:37:48.569Z,1.70
2018-12-25T01:40:18.216Z,1.30
2018-12-25T01:42:47.913Z,1.50
2018-12-25T01:45:17.621Z,1.63
2018-12-25T01:47:47.341Z,1.67
2018-12-25T01:50:16.974Z,1.27
2018-12-25T01:52:46.565Z,1.10
2018-12-25T01:55:16.213Z,2.13
2018-12-25T01:57:45.910Z,1.67
2018-12-25T02:00:15.613Z,1.50
2018-12-25T02:02:45.209Z,1.47
2018-12-25T02:05:14.810Z,3.10
2018-12-25T02:07:44.420Z,1.47
2018-12-25T02:10:14.372Z,1.57
2018-12-25T02:12:44.133Z,1.40
2018-12-25T02:15:14.012Z,3.50
2018-12-25T02:17:43.653Z,1.50
2018-12-25T02:20:13.573Z,1.40
2018-12-25T02:22:43.191Z,2.43
2018-12-25T02:25:12.893Z,1.80
2018-12-25T02:27:42.788Z,1.73
2018-12-25T02:30:12.504Z,1.53
2018-12-25T02:32:42.221Z,1.60
2018-12-25T02:35:11.863Z,2.47
2018-12-25T02:37:41.543Z,1.20
2018-12-25T02:40:11.167Z,1.80
2018-12-25T02:42:40.766Z,2.53
2018-12-25T02:45:11.507Z,1.20
2018-12-25T02:47:41.088Z,1.50
2018-12-25T02:50:10.734Z,1.37
2018-12-25T02:52:40.434Z,1.60
2018-12-25T02:55:10.075Z,1.45
2018-12-25T02:57:39.669Z,2.90
2018-12-25T03:00:09.542Z,2.00
2018-12-25T03:02:39.172Z,1.30
2018-12-25T03:05:08.790Z,1.70
2018-12-25T03:07:38.399Z,2.17
2018-12-25T03:10:08.985Z,1.27
2018-12-25T03:12:38.634Z,1.60
2018-12-25T03:15:08.327Z,1.37
2018-12-25T03:17:37.935Z,1.90
2018-12-25T03:20:07.583Z,1.30
2018-12-25T03:22:37.166Z,1.30
2018-12-25T03:25:06.936Z,1.70
2018-12-25T03:27:36.578Z,1.63
2018-12-25T03:30:06.342Z,1.60
2018-12-25T03:32:35.999Z,1.90
2018-12-25T03:35:05.779Z,1.77
2018-12-25T03:37:35.424Z,1.30
2018-12-25T03:40:05.842Z,1.23
2018-12-25T03:42:35.659Z,1.80
2018-12-25T03:45:05.661Z,2.77
2018-12-25T03:47:35.379Z,1.13
2018-12-25T03:50:10.777Z,1.90
2018-12-25T03:52:37.356Z,1.10
2018-12-25T03:55:07.026Z,1.80
2018-12-25T03:57:36.678Z,2.27
2018-12-25T04:00:06.623Z,1.07
2018-12-25T04:02:36.402Z,1.17
2018-12-25T04:05:06.122Z,1.20
2018-12-25T04:07:36.042Z,1.27
2018-12-25T04:10:05.921Z,1.40
2018-12-25T04:12:35.576Z,1.30
2018-12-25T04:15:05.671Z,1.07
2018-12-25T04:17:35.272Z,1.30
2018-12-25T04:20:05.300Z,1.30
2018-12-25T04:22:34.927Z,1.60
2018-12-25T04:25:05.187Z,1.40
2018-12-25T04:27:34.845Z,1.10
2018-12-25T04:30:05.330Z,1.02
2018-12-25T04:32:35.055Z,1.50
2018-12-25T04:35:05.081Z,1.30
2018-12-25T04:37:34.732Z,1.97
2018-12-25T04:40:05.421Z,1.30
2018-12-25T04:42:35.066Z,1.30
2018-12-25T04:45:05.292Z,1.40
2018-12-25T04:47:34.995Z,1.97
2018-12-25T04:50:05.419Z,1.55
2018-12-25T04:52:35.117Z,1.60
2018-12-25T04:55:05.024Z,2.40
2018-12-25T04:57:34.644Z,1.73
2018-12-25T05:00:05.643Z,1.90
2018-12-25T05:02:35.306Z,1.60
2018-12-25T05:05:05.222Z,1.93
2018-12-25T05:07:34.913Z,1.93
2018-12-25T05:10:05.237Z,2.37
2018-12-25T05:12:34.844Z,1.53
2018-12-25T05:15:05.593Z,1.50
2018-12-25T05:17:35.290Z,1.70
2018-12-25T05:20:05.332Z,1.72
2018-12-25T05:22:38.129Z,1.90
2018-12-25T05:25:07.999Z,1.47
2018-12-25T05:27:37.711Z,1.43
2018-12-25T05:30:07.477Z,1.67
2018-12-25T05:32:37.145Z,1.70
2018-12-25T05:35:06.816Z,1.60
2018-12-25T05:37:36.473Z,1.57
2018-12-25T05:40:06.249Z,1.60
2018-12-25T05:42:35.982Z,1.80
2018-12-25T05:45:05.789Z,1.90
2018-12-25T05:47:35.384Z,1.83
2018-12-25T05:50:05.354Z,1.30
2018-12-25T05:52:34.974Z,1.60
2018-12-25T05:55:05.278Z,1.37
2018-12-25T05:57:34.960Z,1.83
2018-12-25T06:00:05.971Z,1.57
2018-12-25T06:02:35.573Z,1.63
2018-12-25T06:05:05.443Z,1.60
2018-12-25T06:07:35.118Z,2.87
2018-12-25T06:10:05.442Z,2.00
2018-12-25T06:12:35.040Z,1.47
2018-12-25T06:15:05.388Z,2.00
2018-12-25T06:17:35.304Z,2.13
2018-12-25T06:20:05.297Z,1.70
2018-12-25T06:22:34.907Z,1.97
2018-12-25T06:25:05.230Z,2.50
2018-12-25T06:27:34.841Z,1.90
2018-12-25T06:30:05.444Z,1.80
2018-12-25T06:32:35.068Z,1.80
2018-12-25T06:35:05.249Z,1.70
2018-12-25T06:37:34.910Z,1.80
2018-12-25T06:40:05.232Z,2.02
2018-12-25T06:42:34.852Z,2.17
2018-12-25T06:45:05.214Z,1.70
2018-12-25T06:47:34.863Z,1.93
2018-12-25T06:50:05.154Z,2.47
2018-12-25T06:52:34.818Z,2.10
2018-12-25T06:55:05.114Z,1.40
2018-12-25T06:57:34.752Z,2.27
2018-12-25T07:00:07.078Z,1.80
2018-12-25T07:02:36.805Z,1.80
2018-12-25T07:05:06.518Z,2.00
2018-12-25T07:07:36.133Z,2.00
2018-12-25T07:10:05.853Z,1.53
2018-12-25T07:12:35.536Z,2.33
2018-12-25T07:15:05.189Z,2.67
2018-12-25T07:17:34.856Z,5.55
2018-12-25T07:20:05.429Z,4.65
2018-12-25T07:22:36.016Z,4.20
2018-12-25T07:25:06.104Z,4.35
2018-12-25T07:27:35.794Z,8.63
2018-12-25T07:30:06.034Z,3.63
2018-12-25T07:32:35.834Z,2.07
2018-12-25T07:35:05.803Z,4.73
2018-12-25T07:37:35.625Z,4.17
2018-12-25T07:40:05.699Z,3.30
2018-12-25T07:42:35.591Z,1.97
2018-12-25T07:45:05.613Z,1.87
2018-12-25T07:47:35.505Z,2.60
2018-12-25T07:50:05.903Z,2.20
2018-12-25T07:52:35.680Z,2.30
2018-12-25T07:55:05.701Z,2.97
2018-12-25T07:57:35.681Z,1.90
2018-12-25T08:00:07.649Z,1.80
2018-12-25T08:02:38.015Z,3.23
2018-12-25T08:05:08.668Z,2.90
2018-12-25T08:07:39.399Z,1.97
2018-12-25T08:10:09.785Z,2.30
2018-12-25T08:12:41.483Z,1.80
2018-12-25T08:15:11.217Z,2.83
2018-12-25T08:17:42.143Z,2.03
2018-12-25T08:20:12.513Z,1.77
2018-12-25T08:22:43.232Z,2.50
2018-12-25T08:25:13.736Z,2.00
2018-12-25T08:27:47.098Z,2.07
2018-12-25T08:30:18.030Z,1.73
2018-12-25T08:32:49.992Z,1.60
2018-12-25T08:35:20.493Z,2.63
2018-12-25T08:37:50.950Z,1.60
2018-12-25T08:40:22.427Z,2.00
2018-12-25T08:42:53.235Z,1.90
2018-12-25T08:45:29.299Z,1.82
2018-12-25T08:48:00.601Z,1.60
2018-12-25T08:50:31.195Z,3.00
2018-12-25T08:53:01.427Z,1.83
2018-12-25T08:55:31.331Z,1.70
2018-12-25T08:58:01.210Z,1.53
2018-12-25T09:00:31.213Z,1.60
2018-12-25T09:03:00.984Z,2.40
2018-12-25T09:05:30.725Z,3.00
2018-12-25T09:08:00.404Z,1.80
2018-12-25T09:10:30.544Z,1.85
2018-12-25T09:13:00.282Z,2.20
2018-12-25T09:15:30.957Z,1.83
2018-12-25T09:18:00.658Z,2.67
2018-12-25T09:20:30.368Z,2.27
2018-12-25T09:23:00.380Z,3.10
2018-12-25T09:25:30.182Z,2.47
2018-12-25T09:27:59.921Z,2.37
2018-12-25T09:30:29.649Z,1.83
2018-12-25T09:33:00.272Z,2.20
2018-12-25T09:35:30.036Z,2.70
2018-12-25T09:37:59.696Z,2.57
2018-12-25T09:40:29.426Z,1.90
2018-12-25T09:42:59.538Z,3.93
2018-12-25T09:45:29.644Z,4.83
2018-12-25T09:47:59.572Z,6.80
2018-12-25T09:50:29.502Z,3.83
2018-12-25T09:52:59.288Z,5.77
2018-12-25T09:55:29.060Z,4.50
2018-12-25T09:57:58.755Z,3.80
2018-12-25T10:00:28.475Z,5.73
2018-12-25T10:02:58.151Z,7.23
2018-12-25T10:05:28.303Z,6.33
2018-12-25T10:07:57.986Z,7.37
2018-12-25T10:10:27.659Z,4.80
2018-12-25T10:12:57.345Z,4.80
2018-12-25T10:15:27.101Z,3.30
2018-12-25T10:17:56.809Z,5.60
2018-12-25T10:20:28.203Z,5.17
2018-12-25T10:22:58.037Z,3.47
2018-12-25T10:25:27.691Z,3.47
2018-12-25T10:27:57.345Z,4.60
2018-12-25T10:30:26.986Z,5.60
2018-12-25T10:32:56.752Z,4.97
2018-12-25T10:35:26.398Z,3.80
2018-12-25T10:37:56.081Z,3.97
2018-12-25T10:40:25.733Z,4.03
2018-12-25T10:42:55.405Z,3.03
2018-12-25T10:45:25.053Z,4.43
2018-12-25T10:47:54.745Z,3.03
2018-12-25T10:50:24.467Z,4.80
2018-12-25T10:52:54.149Z,4.47
2018-12-25T10:55:24.852Z,4.70
2018-12-25T10:57:55.272Z,2.57
2018-12-25T11:00:25.025Z,2.80
2018-12-25T11:02:54.647Z,3.17
2018-12-25T11:05:24.237Z,3.17
2018-12-25T11:07:53.897Z,4.00
2018-12-25T11:10:23.573Z,4.10
2018-12-25T11:12:53.282Z,2.10
2018-12-25T11:15:23.014Z,2.05
2018-12-25T11:17:52.668Z,2.23
2018-12-25T11:20:22.333Z,2.40
2018-12-25T11:22:51.985Z,2.60
2018-12-25T11:25:21.645Z,3.80
2018-12-25T11:27:51.311Z,2.97
2018-12-25T11:30:20.957Z,2.92
2018-12-25T11:32:50.621Z,2.07
2018-12-25T11:35:20.359Z,3.17
2018-12-25T11:37:50.053Z,2.90
2018-12-25T11:40:19.931Z,2.00
2018-12-25T11:42:49.609Z,2.97
2018-12-25T11:45:20.275Z,3.17
2018-12-25T11:47:49.949Z,2.97
2018-12-25T11:50:20.151Z,2.40
2018-12-25T11:52:50.169Z,2.50
2018-12-25T11:55:21.809Z,3.33
2018-12-25T11:57:53.033Z,2.33
2018-12-25T12:00:25.781Z,2.57
2018-12-25T12:02:55.554Z,2.13
2018-12-25T12:05:25.169Z,2.70
2018-12-25T12:07:54.877Z,1.83
2018-12-25T12:10:24.605Z,2.10
2018-12-25T12:12:54.301Z,2.50
2018-12-25T12:15:23.923Z,2.27
2018-12-25T12:17:53.632Z,2.17
2018-12-25T12:20:23.587Z,2.13
2018-12-25T12:22:53.227Z,2.40
2018-12-25T12:25:22.933Z,2.03
2018-12-25T12:27:52.551Z,2.27
2018-12-25T12:30:22.204Z,1.93
2018-12-25T12:32:51.873Z,2.33
2018-12-25T12:35:21.509Z,2.93
2018-12-25T12:37:52.211Z,3.50
2018-12-25T12:40:24.979Z,2.83
2018-12-25T12:42:59.124Z,2.83
2018-12-25T12:45:32.902Z,1.90
2018-12-25T12:48:02.593Z,2.67
2018-12-25T12:50:36.466Z,1.83
2018-12-25T12:53:06.274Z,2.10
2018-12-25T12:55:35.961Z,1.77
2018-12-25T12:58:08.001Z,2.37
2018-12-25T13:00:39.998Z,2.33
2018-12-25T13:03:09.690Z,2.00
2018-12-25T13:05:39.453Z,2.30
2018-12-25T13:08:09.084Z,2.07
2018-12-25T13:10:39.200Z,2.40
2018-12-25T13:13:08.865Z,3.00
2018-12-25T13:15:38.549Z,1.83
2018-12-25T13:18:08.143Z,2.47
2018-12-25T13:20:37.732Z,1.60
2018-12-25T13:23:07.360Z,2.17
2018-12-25T13:25:37.186Z,1.80
2018-12-25T13:28:06.779Z,2.30
2018-12-25T13:30:38.048Z,2.00
2018-12-25T13:33:07.678Z,1.77
2018-12-25T13:35:37.335Z,1.67
2018-12-25T13:38:07.002Z,2.33
2018-12-25T13:40:36.819Z,2.20
2018-12-25T13:43:06.641Z,2.70
2018-12-25T13:45:36.260Z,3.30
2018-12-25T13:48:05.926Z,2.93
2018-12-25T13:50:35.581Z,2.60
2018-12-25T13:53:05.202Z,3.53
2018-12-25T13:55:34.858Z,3.30
2018-12-25T13:58:04.837Z,4.83
2018-12-25T14:00:34.439Z,5.73
2018-12-25T14:03:04.872Z,4.27
2018-12-25T14:05:34.469Z,4.47
2018-12-25T14:08:09.329Z,3.20
2018-12-25T14:10:39.063Z,4.87
2018-12-25T14:13:08.764Z,2.97
2018-12-25T14:15:38.424Z,4.13
2018-12-25T14:18:08.074Z,3.47
2018-12-25T14:20:42.597Z,2.90
2018-12-25T14:23:14.894Z,3.63
2018-12-25T14:25:44.522Z,2.63
2018-12-25T14:28:14.149Z,2.43
2018-12-25T14:30:43.749Z,3.10
2018-12-25T14:33:13.452Z,2.00
2018-12-25T14:35:43.210Z,3.10
2018-12-25T14:38:13.114Z,2.93
2018-12-25T14:40:42.896Z,2.73
2018-12-25T14:43:12.664Z,4.60
2018-12-25T14:45:42.408Z,3.67
2018-12-25T14:48:12.050Z,2.97
2018-12-25T14:50:41.818Z,2.27
2018-12-25T14:53:19.535Z,2.97
2018-12-25T14:55:42.884Z,1.80
2018-12-25T14:58:14.195Z,2.23
2018-12-25T15:00:43.970Z,3.90
2018-12-25T15:03:13.736Z,2.47
2018-12-25T15:05:43.414Z,3.17
2018-12-25T15:08:13.140Z,2.70
2018-12-25T15:10:42.912Z,2.67
2018-12-25T15:13:12.704Z,2.83
2018-12-25T15:15:42.508Z,2.93
2018-12-25T15:18:12.526Z,4.10
2018-12-25T15:20:42.487Z,2.60
2018-12-25T15:23:12.182Z,3.00
2018-12-25T15:25:41.882Z,2.47
2018-12-25T15:28:11.661Z,1.93
2018-12-25T15:30:41.335Z,2.70
2018-12-25T15:33:11.040Z,2.40
2018-12-25T15:35:40.684Z,2.37
2018-12-25T15:38:10.483Z,2.77
2018-12-25T15:40:40.167Z,3.27
2018-12-25T15:43:09.878Z,3.20
2018-12-25T15:45:39.606Z,2.50
2018-12-25T15:48:09.283Z,4.73
2018-12-25T15:50:38.961Z,3.43
2018-12-25T15:53:08.703Z,2.50
2018-12-25T15:55:38.385Z,3.43
2018-12-25T15:58:08.415Z,3.10
2018-12-25T16:00:38.043Z,4.33
2018-12-25T16:03:07.876Z,3.03
2018-12-25T16:05:37.565Z,2.47
2018-12-25T16:08:07.202Z,2.10
2018-12-25T16:10:36.856Z,2.47
2018-12-25T16:13:06.502Z,2.97
2018-12-25T16:15:36.271Z,2.20
2018-12-25T16:18:05.899Z,2.80
2018-12-25T16:20:35.549Z,10.73
2018-12-25T16:23:05.220Z,9.83
2018-12-25T16:25:34.825Z,6.97
2018-12-25T16:28:04.853Z,7.57
2018-12-25T16:30:34.621Z,5.13
2018-12-25T16:33:04.876Z,4.27
2018-12-25T16:35:34.491Z,3.07
2018-12-25T16:38:04.890Z,3.37
2018-12-25T16:40:34.549Z,3.03
2018-12-25T16:43:05.064Z,2.53
2018-12-25T16:45:37.120Z,4.43
2018-12-25T16:48:06.937Z,12.43
2018-12-25T16:50:36.628Z,5.67
2018-12-25T16:53:06.379Z,7.87
2018-12-25T16:55:36.038Z,3.70
2018-12-25T16:58:05.711Z,2.50
2018-12-25T17:00:35.357Z,2.70
2018-12-25T17:03:04.995Z,2.93
2018-12-25T17:05:34.676Z,2.47
2018-12-25T17:08:04.793Z,2.77
2018-12-25T17:10:34.592Z,2.40
2018-12-25T17:13:04.857Z,3.20
2018-12-25T17:15:34.558Z,2.30
2018-12-25T17:18:04.791Z,2.30
2018-12-25T17:20:34.553Z,2.50
2018-12-25T17:23:04.862Z,3.30
2018-12-25T17:25:34.486Z,2.43
2018-12-25T17:28:04.841Z,2.63
2018-12-25T17:30:34.613Z,5.50
2018-12-25T17:33:04.809Z,2.83
2018-12-25T17:35:34.465Z,2.83
2018-12-25T17:38:04.793Z,3.13
2018-12-25T17:40:34.440Z,2.13
2018-12-25T17:43:04.844Z,2.40
2018-12-25T17:45:34.529Z,2.43
2018-12-25T17:48:04.875Z,2.83
2018-12-25T17:50:34.654Z,2.80
2018-12-25T17:53:06.150Z,2.98
2018-12-25T17:55:36.045Z,2.80
2018-12-25T17:58:06.705Z,2.60
2018-12-25T18:00:36.429Z,2.67
2018-12-25T18:03:06.477Z,2.63
2018-12-25T18:05:36.120Z,3.23
2018-12-25T18:08:05.845Z,2.63
2018-12-25T18:10:35.429Z,2.53
2018-12-25T18:13:05.061Z,2.93
2018-12-25T18:15:34.744Z,3.40
2018-12-25T18:18:04.926Z,2.50
2018-12-25T18:20:34.769Z,2.67
2018-12-25T18:23:04.985Z,3.33
2018-12-25T18:25:34.626Z,2.30
2018-12-25T18:28:04.937Z,2.67
2018-12-25T18:30:34.666Z,2.47
2018-12-25T18:33:04.781Z,2.47
2018-12-25T18:35:34.470Z,2.40
2018-12-25T18:38:04.792Z,2.57
2018-12-25T18:40:34.401Z,2.40
2018-12-25T18:43:04.874Z,2.43
2018-12-25T18:45:34.527Z,2.33
2018-12-25T18:48:04.959Z,2.67
2018-12-25T18:50:34.721Z,2.97
2018-12-25T18:53:04.821Z,2.60
2018-12-25T18:55:34.527Z,2.43
2018-12-25T18:58:04.845Z,2.30
2018-12-25T19:00:34.746Z,2.80
2018-12-25T19:03:04.858Z,2.80
2018-12-25T19:05:34.565Z,4.87
2018-12-25T19:08:04.865Z,3.07
2018-12-25T19:10:34.600Z,2.70
2018-12-25T19:13:04.918Z,1.83
2018-12-25T19:15:35.522Z,2.50
2018-12-25T19:18:07.411Z,2.40
2018-12-25T19:20:37.041Z,2.97
2018-12-25T19:23:06.826Z,3.37
2018-12-25T19:25:36.486Z,2.47
2018-12-25T19:28:06.202Z,2.40
2018-12-25T19:30:38.005Z,2.77
2018-12-25T19:33:07.758Z,2.90
2018-12-25T19:35:37.560Z,2.20
2018-12-25T19:38:07.360Z,2.40
2018-12-25T19:40:37.002Z,2.53
2018-12-25T19:43:06.782Z,2.50
2018-12-25T19:45:36.663Z,3.30
2018-12-25T19:48:06.337Z,2.60
2018-12-25T19:50:36.009Z,4.40
2018-12-25T19:53:06.846Z,2.60
2018-12-25T19:55:36.664Z,2.80
2018-12-25T19:58:06.371Z,2.97
2018-12-25T20:00:36.379Z,2.43
2018-12-25T20:03:35.078Z,2.40
2018-12-25T20:06:35.229Z,2.90
2018-12-25T20:09:42.267Z,2.73
2018-12-25T20:12:44.315Z,2.73
2018-12-25T20:15:43.703Z,2.87
2018-12-25T20:18:39.151Z,2.43
2018-12-25T20:21:49.436Z,3.40
2018-12-25T20:24:55.932Z,2.70
2018-12-25T20:27:44.229Z,2.93
2018-12-25T20:30:42.204Z,2.87
2018-12-25T20:33:49.119Z,3.80
2018-12-25T20:37:04.551Z,2.70
2018-12-25T20:40:24.219Z,2.23
2018-12-25T20:43:23.249Z,3.20
2018-12-25T20:46:52.049Z,2.97
2018-12-25T20:50:10.486Z,2.77
2018-12-25T20:53:33.193Z,3.37
2018-12-25T20:56:42.716Z,3.07
2018-12-25T21:00:04.520Z,2.63
2018-12-25T21:03:25.530Z,2.70
2018-12-25T21:06:42.487Z,2.80
2018-12-25T21:10:01.878Z,2.13
2018-12-25T21:13:07.513Z,2.57
2018-12-25T21:16:32.513Z,3.00
2018-12-25T21:19:38.206Z,3.47
2018-12-25T21:22:44.935Z,3.75
2018-12-25T21:25:51.082Z,2.73
2018-12-25T21:28:20.586Z,2.60
2018-12-25T21:30:50.376Z,2.93
2018-12-25T21:33:20.111Z,3.07
2018-12-25T21:35:50.020Z,2.90
2018-12-25T21:38:19.696Z,3.27
2018-12-25T21:40:49.992Z,2.83
2018-12-25T21:43:20.441Z,3.27
2018-12-25T21:45:50.190Z,3.20
2018-12-25T21:48:19.949Z,3.20
2018-12-25T21:50:49.827Z,3.40
2018-12-25T21:53:19.657Z,4.30
2018-12-25T21:55:49.918Z,2.67
2018-12-25T21:58:20.679Z,3.40
2018-12-25T22:00:50.929Z,3.53
2018-12-25T22:03:20.615Z,2.77
2018-12-25T22:05:50.254Z,2.90
2018-12-25T22:08:19.974Z,2.80
2018-12-25T22:10:49.663Z,3.20
2018-12-25T22:13:19.281Z,3.27
2018-12-25T22:15:49.164Z,4.17
2018-12-25T22:18:18.797Z,2.87
2018-12-25T22:20:48.396Z,3.17
2018-12-25T22:23:18.036Z,3.13
2018-12-25T22:25:47.655Z,2.80
2018-12-25T22:28:17.342Z,2.90
2018-12-25T22:30:46.933Z,3.13
2018-12-25T22:33:16.567Z,2.80
2018-12-25T22:35:46.352Z,3.00
2018-12-25T22:38:16.087Z,3.90
2018-12-25T22:40:45.813Z,2.43
2018-12-25T22:43:15.424Z,2.70
2018-12-25T22:45:45.205Z,3.30
2018-12-25T22:48:14.819Z,2.40
2018-12-25T22:50:44.441Z,2.43
2018-12-25T22:53:14.113Z,2.53
2018-12-25T22:55:43.808Z,2.50
2018-12-25T22:58:13.422Z,2.67
2018-12-25T23:00:43.186Z,2.40
2018-12-25T23:03:22.239Z,2.17
2018-12-25T23:05:51.980Z,2.33
2018-12-25T23:08:21.597Z,2.20
2018-12-25T23:10:51.185Z,2.10
2018-12-25T23:13:20.806Z,3.00
2018-12-25T23:15:50.405Z,2.03
2018-12-25T23:18:19.996Z,2.33
2018-12-25T23:20:49.645Z,5.13
2018-12-25T23:23:19.350Z,2.90
2018-12-25T23:25:48.956Z,2.93
2018-12-25T23:28:18.656Z,3.80
2018-12-25T23:30:48.228Z,3.40
2018-12-25T23:33:17.842Z,3.10
2018-12-25T23:35:47.421Z,3.20
2018-12-25T23:38:17.019Z,3.73
2018-12-25T23:40:46.783Z,3.50
2018-12-25T23:43:16.505Z,4.03
2018-12-25T23:45:46.121Z,4.00
2018-12-25T23:48:15.820Z,3.93
2018-12-25T23:50:45.697Z,4.00
2018-12-25T23:53:15.468Z,3.33
2018-12-25T23:55:52.798Z,3.93
2018-12-25T23:58:16.623Z,3.57
